sensor_id;sensor_type;location;lat;lon;timestamp;temperature;humidity
7248;DHT22;3665;51.034;13.642;2023-02-28T00:02:09;-1.20;99.90
7248;DHT22;3665;51.034;13.642;2023-02-28T00:06:57;-1.30;99.90
7248;DHT22;3665;51.034;13.642;2023-02-28T00:11:47;-1.30;99.90
7248;DHT22;3665;51.034;13.642;2023-02-28T00:16:34;-1.20;99.90
7248;DHT22;3665;51.034;13.642;2023-02-28T00:21:20;-1.30;99.90
7248;DHT22;3665;51.034;13.642;2023-02-28T00:26:09;-1.40;99.90
7248;DHT22;3665;51.034;13.642;2023-02-28T00:30:56;-1.50;99.90
7248;DHT22;3665;51.034;13.642;2023-02-28T00:35:45;-1.60;99.90
7248;DHT22;3665;51.034;13.642;2023-02-28T00:40:33;-1.70;99.90
7248;DHT22;3665;51.034;13.642;2023-02-28T00:45:22;-1.80;99.90
7248;DHT22;3665;51.034;13.642;2023-02-28T00:50:09;-1.70;99.90
7248;DHT22;3665;51.034;13.642;2023-02-28T00:54:57;-1.70;99.90
7248;DHT22;3665;51.034;13.642;2023-02-28T00:59:46;-1.90;99.90
7248;DHT22;3665;51.034;13.642;2023-02-28T01:04:33;-2.10;99.90
7248;DHT22;3665;51.034;13.642;2023-02-28T01:09:23;-2.10;99.90
7248;DHT22;3665;51.034;13.642;2023-02-28T01:14:11;-2.10;99.90
7248;DHT22;3665;51.034;13.642;2023-02-28T01:18:58;-2.10;99.90
7248;DHT22;3665;51.034;13.642;2023-02-28T01:23:49;-2.10;99.90
7248;DHT22;3665;51.034;13.642;2023-02-28T01:28:34;-2.00;99.90
7248;DHT22;3665;51.034;13.642;2023-02-28T01:33:24;-2.00;99.90
7248;DHT22;3665;51.034;13.642;2023-02-28T01:38:10;-1.90;99.90
7248;DHT22;3665;51.034;13.642;2023-02-28T01:43:21;-1.90;99.90
7248;DHT22;3665;51.034;13.642;2023-02-28T01:48:19;-1.90;99.90
7248;DHT22;3665;51.034;13.642;2023-02-28T01:53:10;-2.00;99.90
7248;DHT22;3665;51.034;13.642;2023-02-28T01:57:58;-2.00;99.90
7248;DHT22;3665;51.034;13.642;2023-02-28T02:02:43;-2.10;99.90
7248;DHT22;3665;51.034;13.642;2023-02-28T02:07:30;-2.10;99.90
7248;DHT22;3665;51.034;13.642;2023-02-28T02:12:29;-2.20;99.90
7248;DHT22;3665;51.034;13.642;2023-02-28T02:17:27;-2.20;99.90
7248;DHT22;3665;51.034;13.642;2023-02-28T02:28:08;-2.30;1.00
7248;DHT22;3665;51.034;13.642;2023-02-28T02:38:17;-2.50;1.00
7248;DHT22;3665;51.034;13.642;2023-02-28T02:43:18;-2.50;1.00
7248;DHT22;3665;51.034;13.642;2023-02-28T02:48:05;-2.40;1.00
7248;DHT22;3665;51.034;13.642;2023-02-28T02:52:53;-2.30;90.10
7248;DHT22;3665;51.034;13.642;2023-02-28T02:57:44;-2.20;1.00
7248;DHT22;3665;51.034;13.642;2023-02-28T03:02:47;-2.20;1.00
7248;DHT22;3665;51.034;13.642;2023-02-28T03:07:32;-2.20;1.00
7248;DHT22;3665;51.034;13.642;2023-02-28T03:12:19;-2.10;1.00
7248;DHT22;3665;51.034;13.642;2023-02-28T03:17:27;-2.10;1.00
7248;DHT22;3665;51.034;13.642;2023-02-28T03:22:45;-2.10;99.90
7248;DHT22;3665;51.034;13.642;2023-02-28T03:27:37;-2.10;99.90
7248;DHT22;3665;51.034;13.642;2023-02-28T03:32:38;-2.30;99.90
7248;DHT22;3665;51.034;13.642;2023-02-28T03:37:25;-2.40;99.90
7248;DHT22;3665;51.034;13.642;2023-02-28T03:42:13;-2.50;99.90
7248;DHT22;3665;51.034;13.642;2023-02-28T03:47:05;-2.70;99.90
7248;DHT22;3665;51.034;13.642;2023-02-28T03:52:06;-2.90;1.00
7248;DHT22;3665;51.034;13.642;2023-02-28T03:56:54;-3.10;1.00
7248;DHT22;3665;51.034;13.642;2023-02-28T04:01:43;-3.30;1.00
7248;DHT22;3665;51.034;13.642;2023-02-28T04:06:27;-3.50;1.00
7248;DHT22;3665;51.034;13.642;2023-02-28T04:11:20;-3.60;1.00
7248;DHT22;3665;51.034;13.642;2023-02-28T04:16:18;-3.70;1.00
7248;DHT22;3665;51.034;13.642;2023-02-28T04:21:15;-3.70;1.00
7248;DHT22;3665;51.034;13.642;2023-02-28T04:26:11;-3.80;99.90
7248;DHT22;3665;51.034;13.642;2023-02-28T04:31:00;-3.90;1.00
7248;DHT22;3665;51.034;13.642;2023-02-28T04:35:47;-4.20;1.00
7248;DHT22;3665;51.034;13.642;2023-02-28T04:40:35;-4.30;99.90
7248;DHT22;3665;51.034;13.642;2023-02-28T04:45:22;-4.40;99.90
7248;DHT22;3665;51.034;13.642;2023-02-28T04:50:16;-4.60;99.90
7248;DHT22;3665;51.034;13.642;2023-02-28T04:54:59;-4.70;1.00
7248;DHT22;3665;51.034;13.642;2023-02-28T04:59:46;-4.60;57.10
7248;DHT22;3665;51.034;13.642;2023-02-28T05:04:38;-4.60;99.90
7248;DHT22;3665;51.034;13.642;2023-02-28T05:09:23;-4.70;99.90
7248;DHT22;3665;51.034;13.642;2023-02-28T05:14:12;-4.80;99.90
7248;DHT22;3665;51.034;13.642;2023-02-28T05:18:59;-4.90;99.90
7248;DHT22;3665;51.034;13.642;2023-02-28T05:23:46;-5.00;99.90
7248;DHT22;3665;51.034;13.642;2023-02-28T05:28:35;-5.20;99.90
7248;DHT22;3665;51.034;13.642;2023-02-28T05:33:22;-5.30;99.90
7248;DHT22;3665;51.034;13.642;2023-02-28T05:38:15;-5.40;99.90
7248;DHT22;3665;51.034;13.642;2023-02-28T05:42:59;-5.50;99.90
7248;DHT22;3665;51.034;13.642;2023-02-28T05:47:47;-5.70;99.90
7248;DHT22;3665;51.034;13.642;2023-02-28T05:52:34;-5.70;99.90
7248;DHT22;3665;51.034;13.642;2023-02-28T05:57:27;-5.80;99.90
7248;DHT22;3665;51.034;13.642;2023-02-28T06:02:12;-5.70;99.90
7248;DHT22;3665;51.034;13.642;2023-02-28T06:06:59;-5.80;99.90
7248;DHT22;3665;51.034;13.642;2023-02-28T06:11:45;-5.70;99.90
7248;DHT22;3665;51.034;13.642;2023-02-28T06:16:38;-5.70;99.90
7248;DHT22;3665;51.034;13.642;2023-02-28T06:21:22;-5.50;99.90
7248;DHT22;3665;51.034;13.642;2023-02-28T06:26:10;-5.60;99.90
7248;DHT22;3665;51.034;13.642;2023-02-28T06:30:57;-5.50;99.90
7248;DHT22;3665;51.034;13.642;2023-02-28T06:35:50;-5.40;99.90
7248;DHT22;3665;51.034;13.642;2023-02-28T06:40:34;-5.30;99.90
7248;DHT22;3665;51.034;13.642;2023-02-28T06:45:24;-5.20;99.90
7248;DHT22;3665;51.034;13.642;2023-02-28T06:50:11;-5.10;99.90
7248;DHT22;3665;51.034;13.642;2023-02-28T06:54:58;-4.90;99.90
7248;DHT22;3665;51.034;13.642;2023-02-28T06:59:49;-4.70;99.90
7248;DHT22;3665;51.034;13.642;2023-02-28T07:04:37;-4.50;99.90
7248;DHT22;3665;51.034;13.642;2023-02-28T07:09:22;-4.40;99.90
7248;DHT22;3665;51.034;13.642;2023-02-28T07:14:09;-4.10;99.90
7248;DHT22;3665;51.034;13.642;2023-02-28T07:19:02;-3.80;99.90
7248;DHT22;3665;51.034;13.642;2023-02-28T07:23:47;-3.40;99.90
7248;DHT22;3665;51.034;13.642;2023-02-28T07:28:34;-2.90;99.90
7248;DHT22;3665;51.034;13.642;2023-02-28T07:33:21;-2.50;99.90
7248;DHT22;3665;51.034;13.642;2023-02-28T07:38:11;-2.10;99.90
7248;DHT22;3665;51.034;13.642;2023-02-28T07:43:01;-1.70;99.90
7248;DHT22;3665;51.034;13.642;2023-02-28T07:47:47;-1.50;99.90
7248;DHT22;3665;51.034;13.642;2023-02-28T07:52:35;-1.30;99.90
7248;DHT22;3665;51.034;13.642;2023-02-28T07:57:22;-1.00;99.90
7248;DHT22;3665;51.034;13.642;2023-02-28T08:02:13;-0.70;99.90
7248;DHT22;3665;51.034;13.642;2023-02-28T08:06:59;-0.60;99.90
7248;DHT22;3665;51.034;13.642;2023-02-28T08:11:48;-0.10;1.00
7248;DHT22;3665;51.034;13.642;2023-02-28T08:22:13;0.90;99.90
7248;DHT22;3665;51.034;13.642;2023-02-28T08:26:57;1.10;71.40
7248;DHT22;3665;51.034;13.642;2023-02-28T08:31:47;1.40;63.30
7248;DHT22;3665;51.034;13.642;2023-02-28T08:36:34;1.60;49.80
7248;DHT22;3665;51.034;13.642;2023-02-28T08:41:23;1.30;52.20
7248;DHT22;3665;51.034;13.642;2023-02-28T08:46:12;1.10;52.00
7248;DHT22;3665;51.034;13.642;2023-02-28T08:51:01;1.20;47.50
7248;DHT22;3665;51.034;13.642;2023-02-28T08:56:03;1.40;60.80
7248;DHT22;3665;51.034;13.642;2023-02-28T09:00:51;1.60;38.60
7248;DHT22;3665;51.034;13.642;2023-02-28T09:05:38;1.70;32.60
7248;DHT22;3665;51.034;13.642;2023-02-28T09:10:26;1.90;25.90
7248;DHT22;3665;51.034;13.642;2023-02-28T09:15:19;2.10;21.70
7248;DHT22;3665;51.034;13.642;2023-02-28T09:20:04;2.30;12.90
7248;DHT22;3665;51.034;13.642;2023-02-28T09:24:50;2.50;14.40
7248;DHT22;3665;51.034;13.642;2023-02-28T09:29:38;2.60;8.50
7248;DHT22;3665;51.034;13.642;2023-02-28T09:34:28;2.70;2.60
7248;DHT22;3665;51.034;13.642;2023-02-28T09:39:17;2.80;1.00
7248;DHT22;3665;51.034;13.642;2023-02-28T09:44:04;2.60;1.00
7248;DHT22;3665;51.034;13.642;2023-02-28T09:48:50;2.50;1.00
7248;DHT22;3665;51.034;13.642;2023-02-28T09:53:55;2.70;1.00
7248;DHT22;3665;51.034;13.642;2023-02-28T09:58:49;2.90;1.00
7248;DHT22;3665;51.034;13.642;2023-02-28T10:04:05;2.80;1.00
7248;DHT22;3665;51.034;13.642;2023-02-28T10:09:08;3.10;1.00
7248;DHT22;3665;51.034;13.642;2023-02-28T10:14:00;3.40;1.00
7248;DHT22;3665;51.034;13.642;2023-02-28T10:19:03;3.40;1.00
7248;DHT22;3665;51.034;13.642;2023-02-28T10:23:48;3.00;1.00
7248;DHT22;3665;51.034;13.642;2023-02-28T10:28:35;2.70;1.00
7248;DHT22;3665;51.034;13.642;2023-02-28T10:33:25;3.00;1.00
7248;DHT22;3665;51.034;13.642;2023-02-28T10:38:17;2.90;1.00
7248;DHT22;3665;51.034;13.642;2023-02-28T10:43:19;3.00;1.00
7248;DHT22;3665;51.034;13.642;2023-02-28T10:48:05;3.00;1.00
7248;DHT22;3665;51.034;13.642;2023-02-28T10:52:51;2.80;1.00
7248;DHT22;3665;51.034;13.642;2023-02-28T10:57:38;2.60;1.00
7248;DHT22;3665;51.034;13.642;2023-02-28T11:02:31;3.10;1.00
7248;DHT22;3665;51.034;13.642;2023-02-28T11:07:18;2.90;1.00
7248;DHT22;3665;51.034;13.642;2023-02-28T11:12:27;2.60;1.00
7248;DHT22;3665;51.034;13.642;2023-02-28T11:17:31;2.40;1.00
7248;DHT22;3665;51.034;13.642;2023-02-28T11:22:44;2.60;1.00
7248;DHT22;3665;51.034;13.642;2023-02-28T11:27:49;2.60;1.00
7248;DHT22;3665;51.034;13.642;2023-02-28T11:32:34;2.50;1.00
7248;DHT22;3665;51.034;13.642;2023-02-28T11:37:23;3.00;1.00
7248;DHT22;3665;51.034;13.642;2023-02-28T11:47:41;4.20;1.00
7248;DHT22;3665;51.034;13.642;2023-02-28T11:52:38;4.50;1.00
7248;DHT22;3665;51.034;13.642;2023-02-28T11:58:14;4.40;1.00
7248;DHT22;3665;51.034;13.642;2023-02-28T12:03:33;4.20;1.00
7248;DHT22;3665;51.034;13.642;2023-02-28T12:08:51;4.30;1.00
7248;DHT22;3665;51.034;13.642;2023-02-28T12:13:48;4.20;1.00
7248;DHT22;3665;51.034;13.642;2023-02-28T12:19:00;4.30;1.00
7248;DHT22;3665;51.034;13.642;2023-02-28T12:24:18;4.20;1.00
7248;DHT22;3665;51.034;13.642;2023-02-28T12:29:16;4.20;1.00
7248;DHT22;3665;51.034;13.642;2023-02-28T12:34:16;4.10;1.00
7248;DHT22;3665;51.034;13.642;2023-02-28T12:39:15;4.40;1.00
7248;DHT22;3665;51.034;13.642;2023-02-28T12:44:06;4.50;1.00
7248;DHT22;3665;51.034;13.642;2023-02-28T12:48:55;4.70;1.00
7248;DHT22;3665;51.034;13.642;2023-02-28T12:53:52;4.80;1.00
7248;DHT22;3665;51.034;13.642;2023-02-28T12:58:42;4.90;1.00
7248;DHT22;3665;51.034;13.642;2023-02-28T13:03:50;4.80;1.00
7248;DHT22;3665;51.034;13.642;2023-02-28T13:09:09;4.60;1.00
7248;DHT22;3665;51.034;13.642;2023-02-28T13:13:59;4.50;1.00
7248;DHT22;3665;51.034;13.642;2023-02-28T13:18:44;4.50;1.00
7248;DHT22;3665;51.034;13.642;2023-02-28T13:29:24;4.10;1.00
7248;DHT22;3665;51.034;13.642;2023-02-28T13:34:15;3.70;1.00
7248;DHT22;3665;51.034;13.642;2023-02-28T13:39:00;3.70;1.00
7248;DHT22;3665;51.034;13.642;2023-02-28T13:44:03;3.60;1.00
7248;DHT22;3665;51.034;13.642;2023-02-28T13:48:52;3.50;1.00
7248;DHT22;3665;51.034;13.642;2023-02-28T13:53:57;3.70;1.00
7248;DHT22;3665;51.034;13.642;2023-02-28T13:58:49;3.60;1.00
7248;DHT22;3665;51.034;13.642;2023-02-28T14:09:25;3.70;1.00
7248;DHT22;3665;51.034;13.642;2023-02-28T14:19:47;3.70;1.00
7248;DHT22;3665;51.034;13.642;2023-02-28T14:35:35;3.40;1.00
7248;DHT22;3665;51.034;13.642;2023-02-28T14:40:35;3.40;1.00
7248;DHT22;3665;51.034;13.642;2023-02-28T14:45:24;3.30;1.00
7248;DHT22;3665;51.034;13.642;2023-02-28T14:50:26;3.00;1.00
7248;DHT22;3665;51.034;13.642;2023-02-28T14:55:17;3.00;1.00
7248;DHT22;3665;51.034;13.642;2023-02-28T15:00:07;2.70;1.00
7248;DHT22;3665;51.034;13.642;2023-02-28T15:05:27;2.70;1.00
7248;DHT22;3665;51.034;13.642;2023-02-28T15:10:20;2.50;1.00
7248;DHT22;3665;51.034;13.642;2023-02-28T15:15:15;2.30;1.00
7248;DHT22;3665;51.034;13.642;2023-02-28T15:20:03;2.10;1.00
7248;DHT22;3665;51.034;13.642;2023-02-28T15:24:52;2.10;1.00
7248;DHT22;3665;51.034;13.642;2023-02-28T15:29:44;2.00;1.00
7248;DHT22;3665;51.034;13.642;2023-02-28T15:35:17;2.00;1.00
7248;DHT22;3665;51.034;13.642;2023-02-28T15:40:22;1.80;1.00
7248;DHT22;3665;51.034;13.642;2023-02-28T15:45:27;1.80;1.00
7248;DHT22;3665;51.034;13.642;2023-02-28T15:50:14;1.60;1.00
7248;DHT22;3665;51.034;13.642;2023-02-28T15:54:58;1.40;1.00
7248;DHT22;3665;51.034;13.642;2023-02-28T15:59:51;1.20;1.00
7248;DHT22;3665;51.034;13.642;2023-02-28T16:04:36;1.10;1.00
7248;DHT22;3665;51.034;13.642;2023-02-28T16:09:23;0.90;1.00
7248;DHT22;3665;51.034;13.642;2023-02-28T16:14:15;0.70;1.00
7248;DHT22;3665;51.034;13.642;2023-02-28T16:19:00;0.50;1.00
7248;DHT22;3665;51.034;13.642;2023-02-28T16:23:46;0.30;1.00
7248;DHT22;3665;51.034;13.642;2023-02-28T16:28:39;0.10;1.00
7248;DHT22;3665;51.034;13.642;2023-02-28T16:33:22;-0.10;1.00
7248;DHT22;3665;51.034;13.642;2023-02-28T16:38:10;-0.20;1.00
7248;DHT22;3665;51.034;13.642;2023-02-28T16:42:58;-0.30;1.00
7248;DHT22;3665;51.034;13.642;2023-02-28T16:47:49;-0.60;1.00
7248;DHT22;3665;51.034;13.642;2023-02-28T16:52:35;-0.80;1.00
7248;DHT22;3665;51.034;13.642;2023-02-28T16:57:23;-1.10;18.20
7248;DHT22;3665;51.034;13.642;2023-02-28T17:02:11;-1.50;35.70
7248;DHT22;3665;51.034;13.642;2023-02-28T17:06:59;-1.70;41.40
7248;DHT22;3665;51.034;13.642;2023-02-28T17:11:45;-1.90;63.80
7248;DHT22;3665;51.034;13.642;2023-02-28T17:16:35;-2.10;66.20
7248;DHT22;3665;51.034;13.642;2023-02-28T17:21:21;-2.20;55.30
7248;DHT22;3665;51.034;13.642;2023-02-28T17:26:12;-2.30;86.50
7248;DHT22;3665;51.034;13.642;2023-02-28T17:30:58;-2.50;96.30
7248;DHT22;3665;51.034;13.642;2023-02-28T17:35:46;-2.60;99.90
7248;DHT22;3665;51.034;13.642;2023-02-28T17:40:39;-2.60;99.90
7248;DHT22;3665;51.034;13.642;2023-02-28T17:45:22;-2.70;99.90
7248;DHT22;3665;51.034;13.642;2023-02-28T17:50:15;-2.70;99.90
7248;DHT22;3665;51.034;13.642;2023-02-28T17:55:00;-2.70;99.90
7248;DHT22;3665;51.034;13.642;2023-02-28T17:59:46;-2.80;99.90
7248;DHT22;3665;51.034;13.642;2023-02-28T18:04:38;-2.80;99.90
7248;DHT22;3665;51.034;13.642;2023-02-28T18:09:22;-3.00;99.90
7248;DHT22;3665;51.034;13.642;2023-02-28T18:14:10;-3.10;99.90
7248;DHT22;3665;51.034;13.642;2023-02-28T18:19:00;-3.20;99.90
7248;DHT22;3665;51.034;13.642;2023-02-28T18:23:47;-3.30;99.90
7248;DHT22;3665;51.034;13.642;2023-02-28T18:28:37;-3.40;99.90
7248;DHT22;3665;51.034;13.642;2023-02-28T18:33:24;-3.40;99.90
7248;DHT22;3665;51.034;13.642;2023-02-28T18:38:12;-3.50;99.90
7248;DHT22;3665;51.034;13.642;2023-02-28T18:42:59;-3.50;99.90
7248;DHT22;3665;51.034;13.642;2023-02-28T18:47:48;-3.50;99.90
7248;DHT22;3665;51.034;13.642;2023-02-28T18:52:34;-3.60;99.90
7248;DHT22;3665;51.034;13.642;2023-02-28T18:57:27;-3.60;99.90
7248;DHT22;3665;51.034;13.642;2023-02-28T19:02:11;-3.60;99.90
7248;DHT22;3665;51.034;13.642;2023-02-28T19:07:00;-3.70;99.90
7248;DHT22;3665;51.034;13.642;2023-02-28T19:11:48;-3.80;99.90
7248;DHT22;3665;51.034;13.642;2023-02-28T19:16:34;-3.80;99.90
7248;DHT22;3665;51.034;13.642;2023-02-28T19:21:23;-3.80;99.90
7248;DHT22;3665;51.034;13.642;2023-02-28T19:26:12;-3.90;99.90
7248;DHT22;3665;51.034;13.642;2023-02-28T19:31:00;-4.00;99.90
7248;DHT22;3665;51.034;13.642;2023-02-28T19:35:47;-4.10;99.90
7248;DHT22;3665;51.034;13.642;2023-02-28T19:40:34;-4.10;99.90
7248;DHT22;3665;51.034;13.642;2023-02-28T19:45:21;-4.10;99.90
7248;DHT22;3665;51.034;13.642;2023-02-28T19:50:18;-4.00;99.90
7248;DHT22;3665;51.034;13.642;2023-02-28T19:55:13;-3.90;99.90
7248;DHT22;3665;51.034;13.642;2023-02-28T20:00:02;-4.00;99.90
7248;DHT22;3665;51.034;13.642;2023-02-28T20:04:58;-4.10;99.90
7248;DHT22;3665;51.034;13.642;2023-02-28T20:09:58;-4.10;99.90
7248;DHT22;3665;51.034;13.642;2023-02-28T20:14:43;-4.20;99.90
7248;DHT22;3665;51.034;13.642;2023-02-28T20:19:32;-4.20;99.90
7248;DHT22;3665;51.034;13.642;2023-02-28T20:24:18;-4.30;99.90
7248;DHT22;3665;51.034;13.642;2023-02-28T20:29:08;-4.40;1.00
7248;DHT22;3665;51.034;13.642;2023-02-28T20:33:55;-4.30;1.00
7248;DHT22;3665;51.034;13.642;2023-02-28T20:38:48;-4.20;42.50
7248;DHT22;3665;51.034;13.642;2023-02-28T20:44:05;-4.00;1.00
7248;DHT22;3665;51.034;13.642;2023-02-28T20:48:51;-3.90;1.00
7248;DHT22;3665;51.034;13.642;2023-02-28T20:53:38;-4.00;99.90
7248;DHT22;3665;51.034;13.642;2023-02-28T20:58:27;-3.90;99.90
7248;DHT22;3665;51.034;13.642;2023-02-28T21:03:14;-3.90;99.90
7248;DHT22;3665;51.034;13.642;2023-02-28T21:08:04;-3.80;99.90
7248;DHT22;3665;51.034;13.642;2023-02-28T21:12:51;-4.00;99.90
7248;DHT22;3665;51.034;13.642;2023-02-28T21:17:46;-4.20;99.90
7248;DHT22;3665;51.034;13.642;2023-02-28T21:22:47;-4.30;99.90
7248;DHT22;3665;51.034;13.642;2023-02-28T21:27:32;-4.40;99.90
7248;DHT22;3665;51.034;13.642;2023-02-28T21:32:19;-4.50;1.00
7248;DHT22;3665;51.034;13.642;2023-02-28T21:37:09;-4.60;1.00
7248;DHT22;3665;51.034;13.642;2023-02-28T21:41:54;-4.60;1.00
7248;DHT22;3665;51.034;13.642;2023-02-28T21:46:43;-4.80;1.00
7248;DHT22;3665;51.034;13.642;2023-02-28T21:51:30;-4.70;99.90
7248;DHT22;3665;51.034;13.642;2023-02-28T21:56:20;-4.60;1.00
7248;DHT22;3665;51.034;13.642;2023-02-28T22:01:09;-4.50;1.00
7248;DHT22;3665;51.034;13.642;2023-02-28T22:05:55;-4.40;43.80
7248;DHT22;3665;51.034;13.642;2023-02-28T22:11:02;-4.40;1.00
7248;DHT22;3665;51.034;13.642;2023-02-28T22:16:09;-4.20;99.90
7248;DHT22;3665;51.034;13.642;2023-02-28T22:21:28;-4.20;72.20
7248;DHT22;3665;51.034;13.642;2023-02-28T22:26:26;-4.20;1.00
7248;DHT22;3665;51.034;13.642;2023-02-28T22:31:18;-4.20;1.00
7248;DHT22;3665;51.034;13.642;2023-02-28T22:36:24;-4.20;1.00
7248;DHT22;3665;51.034;13.642;2023-02-28T22:41:39;-4.30;1.00
7248;DHT22;3665;51.034;13.642;2023-02-28T22:46:51;-4.20;22.80
7248;DHT22;3665;51.034;13.642;2023-02-28T22:58:14;-4.40;1.00
7248;DHT22;3665;51.034;13.642;2023-02-28T23:03:35;-4.50;1.00
7248;DHT22;3665;51.034;13.642;2023-02-28T23:08:53;-4.60;89.20
7248;DHT22;3665;51.034;13.642;2023-02-28T23:13:57;-4.70;99.90
7248;DHT22;3665;51.034;13.642;2023-02-28T23:19:01;-4.80;99.90
7248;DHT22;3665;51.034;13.642;2023-02-28T23:24:20;-4.70;1.00
7248;DHT22;3665;51.034;13.642;2023-02-28T23:29:43;-4.70;1.00
7248;DHT22;3665;51.034;13.642;2023-02-28T23:34:43;-4.70;1.00
7248;DHT22;3665;51.034;13.642;2023-02-28T23:40:35;-4.80;99.90
7248;DHT22;3665;51.034;13.642;2023-02-28T23:45:30;-4.80;99.90
7248;DHT22;3665;51.034;13.642;2023-02-28T23:50:49;-4.80;1.00
7248;DHT22;3665;51.034;13.642;2023-02-28T23:56:24;-5.00;1.00
